createdAt,value
2019-02-26T00:04:36.912Z,37.17
2019-02-26T00:09:42.485Z,38.85
2019-02-26T00:14:49.995Z,39.55
2019-02-26T00:19:54.913Z,39.92
2019-02-26T00:25:03.833Z,42.62
2019-02-26T00:30:11.182Z,42.15
2019-02-26T00:35:18.226Z,42.08
2019-02-26T00:40:23.224Z,36.13
2019-02-26T00:45:29.460Z,33.10
2019-02-26T00:50:37.313Z,43.03
2019-02-26T00:55:42.199Z,44.75
2019-02-26T01:00:47.213Z,41.63
2019-02-26T01:05:52.631Z,34.40
2019-02-26T01:10:59.244Z,37.20
2019-02-26T01:16:04.376Z,35.58
2019-02-26T01:21:09.387Z,33.05
2019-02-26T01:26:14.745Z,30.35
2019-02-26T01:31:20.706Z,34.27
2019-02-26T01:36:26.821Z,31.83
2019-02-26T01:41:32.241Z,28.23
2019-02-26T01:46:38.967Z,31.60
2019-02-26T01:51:46.937Z,39.80
2019-02-26T01:56:53.429Z,37.30
2019-02-26T02:01:58.747Z,33.30
2019-02-26T02:07:05.939Z,32.77
2019-02-26T02:12:11.042Z,31.37
2019-02-26T02:17:17.682Z,33.05
2019-02-26T02:22:22.699Z,35.10
2019-02-26T02:27:30.350Z,34.10
2019-02-26T02:32:34.601Z,29.98
2019-02-26T02:37:39.581Z,30.77
2019-02-26T02:42:48.493Z,32.27
2019-02-26T02:47:54.850Z,32.42
2019-02-26T02:52:59.629Z,30.47
2019-02-26T02:58:04.758Z,29.75
2019-02-26T03:03:09.773Z,32.67
2019-02-26T03:08:16.337Z,32.23
2019-02-26T03:13:24.870Z,38.57
2019-02-26T03:18:28.239Z,42.78
2019-02-26T03:23:33.944Z,47.73
2019-02-26T03:28:44.435Z,46.27
2019-02-26T03:33:48.897Z,41.50
2019-02-26T03:38:56.595Z,38.58
2019-02-26T03:44:03.262Z,38.05
2019-02-26T03:49:08.075Z,41.47
2019-02-26T03:54:13.104Z,38.30
2019-02-26T03:59:18.154Z,36.35
2019-02-26T04:04:25.627Z,36.98
2019-02-26T04:09:29.859Z,32.87
2019-02-26T04:14:34.895Z,37.38
2019-02-26T04:19:43.647Z,32.63
2019-02-26T04:24:46.579Z,38.45
2019-02-26T04:30:34.035Z,33.08
2019-02-26T04:35:55.620Z,36.28
2019-02-26T04:41:25.717Z,33.90
2019-02-26T04:46:53.941Z,36.53
2019-02-26T04:51:59.231Z,32.80
2019-02-26T04:57:04.332Z,31.05
2019-02-26T05:02:09.437Z,34.73
2019-02-26T05:07:18.733Z,43.33
2019-02-26T05:12:25.041Z,40.83
2019-02-26T05:17:30.246Z,42.65
2019-02-26T05:22:34.637Z,38.83
2019-02-26T05:27:42.389Z,38.07
2019-02-26T05:32:46.352Z,38.17
2019-02-26T05:37:51.365Z,40.65
2019-02-26T05:42:58.833Z,43.83
2019-02-26T05:48:03.536Z,44.30
2019-02-26T05:53:11.439Z,47.15
2019-02-26T05:58:16.422Z,46.90
2019-02-26T06:03:21.877Z,45.90
2019-02-26T06:08:30.164Z,44.40
2019-02-26T06:13:35.534Z,43.75
2019-02-26T06:18:41.987Z,43.15
2019-02-26T06:23:52.219Z,47.53
2019-02-26T06:28:57.229Z,47.10
2019-02-26T06:34:05.638Z,43.47
2019-02-26T06:39:09.227Z,41.68
2019-02-26T06:44:14.265Z,42.57
2019-02-26T06:49:20.686Z,45.00
2019-02-26T06:54:27.124Z,39.45
2019-02-26T06:59:34.948Z,37.63
2019-02-26T07:04:39.629Z,43.13
2019-02-26T07:09:44.689Z,39.00
2019-02-26T07:14:51.357Z,35.73
2019-02-26T07:19:58.459Z,36.35
2019-02-26T07:25:06.444Z,36.77
2019-02-26T07:30:11.878Z,37.25
2019-02-26T07:35:17.339Z,35.45
2019-02-26T07:40:22.697Z,32.63
2019-02-26T07:45:29.641Z,33.00
2019-02-26T07:50:37.644Z,34.73
2019-02-26T07:55:42.406Z,37.97
2019-02-26T08:00:49.864Z,40.97
2019-02-26T08:05:54.183Z,36.68
2019-02-26T08:10:59.227Z,38.28
2019-02-26T08:16:05.115Z,33.13
2019-02-26T08:21:10.275Z,29.98
2019-02-26T08:26:17.290Z,30.32
2019-02-26T08:31:23.229Z,30.80
2019-02-26T08:36:30.116Z,33.23
2019-02-26T08:41:36.279Z,31.97
2019-02-26T08:46:42.723Z,33.15
2019-02-26T08:51:49.235Z,33.08
2019-02-26T08:56:54.495Z,34.85
2019-02-26T09:01:59.601Z,34.08
2019-02-26T09:07:04.644Z,32.60
2019-02-26T09:12:10.101Z,33.15
2019-02-26T09:17:18.712Z,37.55
2019-02-26T09:22:23.608Z,33.15
2019-02-26T09:27:29.470Z,35.38
2019-02-26T09:32:37.541Z,32.98
2019-02-26T09:37:42.795Z,30.45
2019-02-26T09:42:51.755Z,30.03
2019-02-26T09:47:57.862Z,30.40
2019-02-26T09:53:02.593Z,31.27
2019-02-26T09:58:07.770Z,28.97
2019-02-26T10:03:15.029Z,29.30
2019-02-26T10:08:20.367Z,29.80
2019-02-26T10:13:27.758Z,30.45
2019-02-26T10:18:33.075Z,32.10
2019-02-26T10:23:38.415Z,32.00
2019-02-26T10:28:46.795Z,30.88
2019-02-26T10:33:50.854Z,29.70
2019-02-26T10:38:57.857Z,31.65
2019-02-26T10:44:02.698Z,31.70
2019-02-26T10:49:07.846Z,28.05
2019-02-26T10:54:17.664Z,28.92
2019-02-26T10:59:25.024Z,27.67
2019-02-26T11:04:35.568Z,30.87
2019-02-26T11:09:41.056Z,27.15
2019-02-26T11:14:46.166Z,28.07
2019-02-26T11:24:56.132Z,27.20
2019-02-26T11:30:04.886Z,28.35
2019-02-26T11:35:11.728Z,27.60
2019-02-26T11:40:19.756Z,25.75
2019-02-26T11:45:24.206Z,28.38
2019-02-26T11:50:29.352Z,29.70
2019-02-26T11:55:37.396Z,29.15
2019-02-26T12:00:50.799Z,26.02
2019-02-26T12:06:00.631Z,26.10
2019-02-26T12:31:25.381Z,27.87
2019-02-26T12:36:32.671Z,27.02
2019-02-26T12:41:41.190Z,27.02
2019-02-26T12:46:45.828Z,24.53
2019-02-26T12:51:53.982Z,25.50
2019-02-26T14:18:22.752Z,28.12
2019-02-26T14:33:36.554Z,27.05
2019-02-26T17:51:39.273Z,32.43
2019-02-26T17:56:44.961Z,32.67
2019-02-26T18:01:50.042Z,30.50
2019-02-26T18:06:55.193Z,31.40
2019-02-26T18:12:02.289Z,36.00
2019-02-26T18:17:07.527Z,35.60
2019-02-26T18:22:12.607Z,35.23
2019-02-26T18:27:17.869Z,33.70
2019-02-26T18:32:23.138Z,38.67
2019-02-26T18:37:29.620Z,37.30
2019-02-26T18:42:34.754Z,33.93
2019-02-26T18:47:42.376Z,36.10
2019-02-26T18:52:47.681Z,37.40
2019-02-26T18:57:54.462Z,34.40
2019-02-26T19:02:59.688Z,33.83
2019-02-26T19:08:05.826Z,33.43
2019-02-26T19:13:11.804Z,34.27
2019-02-26T19:18:17.538Z,33.77
2019-02-26T19:23:22.785Z,31.27
2019-02-26T19:28:28.621Z,36.23
2019-02-26T19:33:33.837Z,37.42
2019-02-26T19:38:39.776Z,35.50
2019-02-26T19:44:00.032Z,37.50
2019-02-26T19:49:05.722Z,34.58
2019-02-26T19:54:11.616Z,35.20
2019-02-26T19:59:16.750Z,34.10
2019-02-26T20:04:22.488Z,36.42
2019-02-26T20:09:33.562Z,38.60
2019-02-26T20:14:38.882Z,36.83
2019-02-26T20:19:44.344Z,35.45
2019-02-26T20:24:49.668Z,36.00
2019-02-26T20:29:55.465Z,36.80
2019-02-26T20:35:00.734Z,37.20
2019-02-26T20:40:16.001Z,38.00
2019-02-26T20:45:19.002Z,35.28
2019-02-26T20:50:24.440Z,36.60
2019-02-26T20:55:29.832Z,37.50
2019-02-26T21:00:35.102Z,36.65
2019-02-26T21:05:41.790Z,37.70
2019-02-26T21:10:52.156Z,36.95
2019-02-26T21:15:58.081Z,36.20
2019-02-26T21:21:03.328Z,36.93
2019-02-26T21:26:09.456Z,40.03
2019-02-26T21:31:16.684Z,38.13
2019-02-26T21:36:27.906Z,38.20
2019-02-26T21:41:35.849Z,42.85
2019-02-26T21:46:47.352Z,41.37
2019-02-26T21:51:55.451Z,38.78
2019-02-26T21:57:02.366Z,39.53
2019-02-26T22:02:11.104Z,39.40
2019-02-26T22:07:16.806Z,39.00
2019-02-26T22:12:26.475Z,37.73
2019-02-26T22:17:33.861Z,37.37
2019-02-26T22:22:40.123Z,39.53
2019-02-26T22:27:45.269Z,44.13
2019-02-26T22:32:55.282Z,39.88
2019-02-26T22:38:00.368Z,40.38
2019-02-26T22:43:05.399Z,47.25
2019-02-26T22:48:15.140Z,43.93
2019-02-26T22:53:21.470Z,41.95
2019-02-26T22:58:27.758Z,48.28
2019-02-26T23:03:32.800Z,45.90
2019-02-26T23:08:37.846Z,42.90
2019-02-26T23:13:44.152Z,41.63
2019-02-26T23:18:49.629Z,41.98
2019-02-26T23:23:56.673Z,42.48
2019-02-26T23:29:02.094Z,42.17
2019-02-26T23:34:10.272Z,42.30
2019-02-26T23:39:16.907Z,46.63
2019-02-26T23:44:23.661Z,40.63
2019-02-26T23:49:28.658Z,45.30
2019-02-26T23:54:33.760Z,47.15
2019-02-26T23:59:47.827Z,43.45
